createdAt,value
2017-04-30T11:10:28.268Z,82528
2017-04-30T11:11:38.070Z,83424
2017-04-30T11:12:47.816Z,84288
2017-04-30T11:13:57.874Z,87296
2017-04-30T11:15:07.623Z,87680
2017-04-30T11:16:17.056Z,88576
2017-04-30T11:17:26.489Z,90272
2017-04-30T11:18:35.922Z,63456
2017-04-30T11:19:45.399Z,42176
2017-04-30T11:20:55.143Z,66528
2017-04-30T11:22:04.243Z,83072
2017-04-30T11:23:13.668Z,83840
2017-04-30T11:24:23.413Z,84384
2017-04-30T11:25:33.153Z,66528
2017-04-30T11:26:42.887Z,64928
2017-04-30T11:27:52.945Z,70208
2017-04-30T11:29:02.698Z,78304
2017-04-30T11:30:12.447Z,77376
2017-04-30T11:31:21.559Z,72544
2017-04-30T11:32:31.620Z,77344
2017-04-30T11:33:41.690Z,77888
2017-04-30T11:34:51.755Z,76544
2017-04-30T11:36:01.499Z,74592
2017-04-30T11:37:11.555Z,73952
2017-04-30T11:38:21.617Z,66112
2017-04-30T11:39:31.038Z,60256
2017-04-30T11:40:41.091Z,63264
2017-04-30T11:41:51.150Z,65792
2017-04-30T11:43:00.590Z,67392
2017-04-30T11:44:10.642Z,67072
2017-04-30T11:45:20.697Z,66080
2017-04-30T11:46:30.468Z,68032
2017-04-30T11:47:39.899Z,53952
2017-04-30T11:48:49.673Z,70784
2017-04-30T11:49:59.724Z,69664
2017-04-30T11:51:09.474Z,62272
2017-04-30T11:52:19.225Z,57088
2017-04-30T11:53:29.288Z,54560
2017-04-30T11:54:38.743Z,59424
2017-04-30T11:55:48.513Z,50144
2017-04-30T11:56:57.945Z,45696
2017-04-30T11:58:08.319Z,28896
2017-04-30T11:59:17.747Z,24448
2017-04-30T12:00:27.493Z,34400
2017-04-30T12:01:36.930Z,59840
2017-04-30T12:02:46.672Z,63104
2017-04-30T12:03:56.741Z,68576
2017-04-30T12:05:07.114Z,81088
2017-04-30T12:06:16.861Z,85600
2017-04-30T12:07:26.918Z,53600
2017-04-30T12:08:37.299Z,53952
2017-04-30T12:09:47.035Z,91456
2017-04-30T12:10:57.404Z,75840
2017-04-30T12:12:07.140Z,76736
2017-04-30T12:13:17.519Z,82912
2017-04-30T12:14:27.583Z,80544
2017-04-30T12:15:37.008Z,76928
2017-04-30T12:16:47.114Z,77920
2017-04-30T12:17:56.871Z,76576
2017-04-30T12:19:06.946Z,75424
2017-04-30T12:20:16.682Z,77376
2017-04-30T12:21:26.429Z,72736
2017-04-30T12:22:36.180Z,73280
2017-04-30T12:23:46.563Z,72928
2017-04-30T12:24:56.625Z,73568
2017-04-30T12:26:06.685Z,70048
2017-04-30T12:27:16.114Z,71328
2017-04-30T12:28:25.550Z,68992
2017-04-30T12:29:35.615Z,64416
2017-04-30T12:30:45.990Z,57984
2017-04-30T12:31:56.363Z,68992
2017-04-30T12:33:06.423Z,76000
2017-04-30T12:34:16.174Z,71520
2017-04-30T12:35:26.237Z,64192
2017-04-30T12:36:35.977Z,65568
2017-04-30T12:37:45.723Z,71552
2017-04-30T12:38:56.106Z,70400
2017-04-30T12:40:05.850Z,52640
2017-04-30T12:41:15.283Z,70784
2017-04-30T12:42:24.710Z,75392
2017-04-30T12:43:33.840Z,76960
2017-04-30T12:44:43.606Z,75968
2017-04-30T12:45:53.354Z,78368
2017-04-30T12:47:03.101Z,78592
2017-04-30T12:48:12.850Z,76544
2017-04-30T12:49:22.918Z,77312
2017-04-30T12:50:33.289Z,76320
2017-04-30T12:51:43.031Z,68512
2017-04-30T12:52:53.093Z,70784
2017-04-30T12:54:02.536Z,69632
2017-04-30T12:55:12.347Z,61056
2017-04-30T12:56:22.074Z,34368
2017-04-30T12:57:32.127Z,62336
2017-04-30T12:58:41.868Z,71168
2017-04-30T12:59:51.936Z,70336
2017-04-30T13:01:01.366Z,68416
2017-04-30T13:02:11.111Z,70144
2017-04-30T13:03:20.864Z,69024
2017-04-30T13:04:30.920Z,66560
2017-04-30T13:05:40.671Z,66752
2017-04-30T13:06:50.100Z,63744
2017-04-30T13:07:59.535Z,58240
2017-04-30T13:09:09.285Z,54496
2017-04-30T13:10:18.718Z,50016
2017-04-30T13:11:28.785Z,44096
2017-04-30T13:12:39.160Z,40768
2017-04-30T13:13:49.226Z,35104
2017-04-30T13:14:59.593Z,33696
2017-04-30T13:16:09.326Z,32576
2017-04-30T13:17:19.104Z,31296
2017-04-30T13:18:28.855Z,30016
2017-04-30T13:19:38.608Z,29056
2017-04-30T13:20:48.347Z,28416
2017-04-30T13:21:58.400Z,38080
2017-04-30T13:23:08.143Z,35520
2017-04-30T13:24:18.197Z,55776
2017-04-30T13:25:27.618Z,68576
2017-04-30T13:26:38.071Z,61888
2017-04-30T13:27:47.512Z,59072
2017-04-30T13:28:57.915Z,55552
2017-04-30T13:30:08.297Z,52736
2017-04-30T13:31:18.034Z,56608
2017-04-30T13:32:27.776Z,54112
2017-04-30T13:33:37.830Z,51328
2017-04-30T13:34:47.890Z,55904
2017-04-30T13:35:57.311Z,55680
2017-04-30T13:37:07.058Z,51520
2017-04-30T13:38:16.501Z,54848
2017-04-30T13:39:27.020Z,59232
2017-04-30T13:40:37.085Z,58464
2017-04-30T13:41:46.522Z,59264
2017-04-30T13:42:56.579Z,50944
2017-04-30T13:44:06.423Z,54752
2017-04-30T13:45:16.171Z,54816
2017-04-30T13:46:26.544Z,60128
2017-04-30T13:47:36.604Z,64544
2017-04-30T13:48:46.673Z,66080
2017-04-30T13:49:56.739Z,60960
2017-04-30T13:51:06.219Z,58592
2017-04-30T13:52:16.279Z,57344
2017-04-30T13:53:26.660Z,59808
2017-04-30T13:54:36.078Z,62528
2017-04-30T13:55:46.132Z,58688
2017-04-30T13:56:55.555Z,55456
2017-04-30T13:58:05.951Z,53216
2017-04-30T13:59:16.013Z,56384
2017-04-30T14:00:25.748Z,52960
2017-04-30T14:01:35.176Z,50720
2017-04-30T14:02:45.247Z,51648
2017-04-30T14:03:54.996Z,52000
2017-04-30T14:05:05.058Z,51488
2017-04-30T14:06:14.799Z,61984
2017-04-30T14:07:24.219Z,63680
2017-04-30T14:08:34.302Z,66400
2017-04-30T14:09:43.737Z,63584
2017-04-30T14:10:53.799Z,64896
2017-04-30T14:12:02.920Z,54816
2017-04-30T14:13:12.989Z,64640
2017-04-30T14:14:23.044Z,72736
2017-04-30T14:15:33.107Z,73952
2017-04-30T14:16:43.167Z,71296
2017-04-30T14:17:52.909Z,72000
2017-04-30T14:19:02.348Z,72448
2017-04-30T14:20:12.090Z,73024
2017-04-30T14:21:21.514Z,72352
2017-04-30T14:22:31.575Z,72128
2017-04-30T14:23:41.009Z,69600
2017-04-30T14:24:50.753Z,59136
2017-04-30T14:25:59.861Z,48192
2017-04-30T14:27:09.293Z,41504
2017-04-30T14:28:19.057Z,34368
2017-04-30T14:29:29.125Z,60768
2017-04-30T14:30:38.559Z,56864
2017-04-30T14:31:48.939Z,71648
2017-04-30T14:32:58.698Z,72320
2017-04-30T14:34:08.454Z,71328
2017-04-30T14:35:18.199Z,72640
2017-04-30T14:36:28.258Z,73408
2017-04-30T14:37:38.643Z,74304
2017-04-30T14:38:47.750Z,72448
2017-04-30T14:39:57.497Z,75520
2017-04-30T14:41:07.549Z,74240
2017-04-30T14:42:17.604Z,67584
2017-04-30T14:43:27.352Z,39776
2017-04-30T14:44:37.113Z,44448
2017-04-30T14:45:46.862Z,23680
2017-04-30T14:46:55.970Z,49344
2017-04-30T14:48:05.714Z,74656
2017-04-30T14:49:15.764Z,79392
2017-04-30T14:50:25.826Z,70080
2017-04-30T14:51:35.875Z,78176
2017-04-30T14:52:45.298Z,73824
2017-04-30T14:53:54.408Z,79360
2017-04-30T14:55:04.496Z,77728
2017-04-30T14:56:13.930Z,75392
2017-04-30T14:57:23.988Z,74400
2017-04-30T14:58:34.364Z,77248
2017-04-30T14:59:44.422Z,79584
2017-04-30T15:00:54.179Z,80224
2017-04-30T15:02:03.922Z,73472
2017-04-30T15:03:13.659Z,61440
2017-04-30T15:04:23.080Z,60832
2017-04-30T15:05:33.131Z,69088
2017-04-30T15:06:42.551Z,65248
2017-04-30T15:07:52.292Z,34080
2017-04-30T15:09:02.359Z,45728
2017-04-30T15:10:12.099Z,62368
2017-04-30T15:11:21.828Z,62464
2017-04-30T15:12:31.895Z,61984
2017-04-30T15:13:41.956Z,61472
2017-04-30T15:14:52.004Z,66240
2017-04-30T15:16:01.475Z,65664
2017-04-30T15:17:11.220Z,62336
2017-04-30T15:18:20.961Z,43136
2017-04-30T15:19:30.074Z,51936
2017-04-30T15:20:40.135Z,66912
2017-04-30T15:21:50.500Z,41824
2017-04-30T15:23:00.249Z,56032
2017-04-30T15:24:09.671Z,63744
2017-04-30T15:25:19.416Z,62944
2017-04-30T15:26:29.154Z,64352
2017-04-30T15:27:39.209Z,66560
2017-04-30T15:28:48.634Z,66912
2017-04-30T15:29:58.379Z,64416
2017-04-30T15:31:08.441Z,66400
2017-04-30T15:32:18.816Z,65632
2017-04-30T15:33:28.277Z,60512
2017-04-30T15:34:38.023Z,62336
2017-04-30T15:35:47.758Z,59936
2017-04-30T15:36:57.512Z,57376
2017-04-30T15:38:07.571Z,55136
2017-04-30T15:39:17.616Z,56672
2017-04-30T15:40:27.352Z,50624
2017-04-30T15:41:37.091Z,53440
2017-04-30T15:42:47.149Z,54912
2017-04-30T15:43:56.885Z,55424
2017-04-30T15:45:06.947Z,53632
2017-04-30T15:46:16.056Z,49568
2017-04-30T15:47:26.425Z,54784
2017-04-30T15:48:36.175Z,54368
2017-04-30T15:49:45.595Z,55360
2017-04-30T15:50:55.018Z,56032
2017-04-30T15:52:04.775Z,55168
2017-04-30T15:53:13.901Z,54912
2017-04-30T15:54:23.967Z,55808
2017-04-30T15:55:34.014Z,55584
2017-04-30T15:56:43.761Z,58464
2017-04-30T15:57:52.872Z,59392
2017-04-30T15:59:02.614Z,55840
2017-04-30T16:00:12.665Z,54976
2017-04-30T16:01:22.086Z,50144
2017-04-30T16:02:32.450Z,51136
2017-04-30T16:03:42.506Z,51392
2017-04-30T16:04:51.937Z,48640
2017-04-30T16:06:01.997Z,47200
2017-04-30T16:07:12.055Z,46176
2017-04-30T16:08:22.109Z,44224
2017-04-30T16:09:32.170Z,46304
2017-04-30T16:10:41.917Z,45344
2017-04-30T16:11:51.345Z,43424
2017-04-30T16:13:01.097Z,40864
2017-04-30T16:14:10.207Z,38784
2017-04-30T16:15:20.253Z,34784
2017-04-30T16:16:30.302Z,35232
2017-04-30T16:17:40.045Z,30496
2017-04-30T16:18:49.462Z,27648
2017-04-30T16:19:59.834Z,26304
2017-04-30T16:21:09.573Z,25120
2017-04-30T16:22:19.322Z,25248
2017-04-30T16:23:28.741Z,24768
2017-04-30T16:24:38.170Z,23072
2017-04-30T16:25:47.597Z,22464
2017-04-30T16:26:57.341Z,21440
2017-04-30T16:28:07.719Z,19616
2017-04-30T16:29:18.099Z,19616
2017-04-30T16:30:27.850Z,18304
2017-04-30T16:31:37.897Z,19232
2017-04-30T16:32:47.950Z,19072
2017-04-30T16:33:58.007Z,19456
2017-04-30T16:35:07.434Z,19392
2017-04-30T16:36:17.487Z,19264
2017-04-30T16:37:27.549Z,18496
2017-04-30T16:38:36.984Z,19040
2017-04-30T16:39:47.050Z,19776
2017-04-30T16:40:57.197Z,19904
2017-04-30T16:42:07.251Z,19904
2017-04-30T16:43:16.360Z,19936
2017-04-30T16:44:26.425Z,19776
2017-04-30T16:45:36.477Z,17408
2017-04-30T16:46:46.213Z,18624
2017-04-30T16:47:56.264Z,18272
2017-04-30T16:49:06.008Z,19456
2017-04-30T16:50:15.742Z,19392
2017-04-30T16:51:25.803Z,20352
2017-04-30T16:52:35.259Z,24320
2017-04-30T16:53:44.683Z,29920
2017-04-30T16:54:54.102Z,38336
2017-04-30T16:56:03.832Z,50656
2017-04-30T16:57:13.247Z,51936
2017-04-30T16:58:22.986Z,40960
2017-04-30T16:59:32.730Z,21696
2017-04-30T17:00:42.147Z,27232
2017-04-30T17:01:51.562Z,29728
2017-04-30T17:03:01.336Z,26560
2017-04-30T17:04:11.399Z,22752
2017-04-30T17:05:21.465Z,14668
2017-04-30T17:06:31.517Z,11768
2017-04-30T17:07:41.579Z,13680
2017-04-30T17:08:51.333Z,19360
2017-04-30T17:10:00.444Z,17664
2017-04-30T17:11:10.179Z,14256
2017-04-30T17:12:19.601Z,11088
2017-04-30T17:13:29.666Z,11508
2017-04-30T17:14:39.716Z,10412
2017-04-30T17:15:49.131Z,13200
2017-04-30T17:16:58.557Z,12060
2017-04-30T17:18:07.967Z,14980
2017-04-30T17:19:17.390Z,14224
2017-04-30T17:20:27.457Z,14096
2017-04-30T17:21:36.910Z,15400
2017-04-30T17:22:46.959Z,15812
2017-04-30T17:23:57.027Z,14856
2017-04-30T17:25:07.083Z,14528
2017-04-30T17:26:17.124Z,11156
2017-04-30T17:27:26.853Z,9592
2017-04-30T17:28:36.898Z,9124
2017-04-30T17:29:46.954Z,8528
2017-04-30T17:30:57.007Z,8292
2017-04-30T17:32:06.106Z,9656
2017-04-30T17:33:15.881Z,7920
2017-04-30T17:34:24.990Z,9444
2017-04-30T17:35:34.416Z,10816
2017-04-30T17:36:44.460Z,11380
2017-04-30T17:37:54.204Z,10600
2017-04-30T17:39:03.940Z,10276
2017-04-30T17:40:14.305Z,10228
2017-04-30T17:41:24.044Z,10256
2017-04-30T17:42:33.458Z,9628
2017-04-30T17:43:43.830Z,9532
2017-04-30T17:44:53.888Z,9328
2017-04-30T17:46:03.946Z,8956
2017-04-30T17:47:13.364Z,8316
2017-04-30T17:48:22.819Z,7912
2017-04-30T17:49:31.927Z,7616
2017-04-30T17:50:41.342Z,7400
2017-04-30T17:51:51.701Z,7216
2017-04-30T17:53:01.764Z,6948
2017-04-30T17:54:12.130Z,6588
2017-04-30T17:55:21.866Z,6136
2017-04-30T17:56:31.286Z,5980
2017-04-30T17:57:41.325Z,5740
2017-04-30T17:58:51.376Z,5348
2017-04-30T18:00:00.805Z,5200
2017-04-30T18:01:10.536Z,5052
2017-04-30T18:02:19.638Z,4648
2017-04-30T18:03:29.070Z,4424
2017-04-30T18:04:39.433Z,4228
2017-04-30T18:05:49.172Z,4080
2017-04-30T18:06:59.220Z,4076
2017-04-30T18:08:08.639Z,4056
2017-04-30T18:09:19.013Z,3916
2017-04-30T18:10:29.383Z,3788
2017-04-30T18:11:39.110Z,3600
2017-04-30T18:12:48.842Z,3440
2017-04-30T18:13:58.895Z,3352
2017-04-30T18:15:08.942Z,3272
2017-04-30T18:16:18.360Z,3224
2017-04-30T18:17:27.769Z,3156
2017-04-30T18:18:38.141Z,3080
2017-04-30T18:19:48.202Z,2892
2017-04-30T18:20:58.250Z,2716
2017-04-30T18:22:07.673Z,2564
2017-04-30T18:23:18.032Z,2420
2017-04-30T18:24:28.083Z,2284
2017-04-30T18:25:37.487Z,2192
2017-04-30T18:26:46.900Z,2076
2017-04-30T18:27:56.949Z,1964
2017-04-30T18:29:06.688Z,1864
2017-04-30T18:30:16.104Z,1768
2017-04-30T18:31:25.837Z,1672
2017-04-30T18:32:35.575Z,1568
2017-04-30T18:33:45.460Z,1464
2017-04-30T18:34:55.511Z,1368
2017-04-30T18:36:04.619Z,1276
2017-04-30T18:37:14.344Z,1192
2017-04-30T18:38:24.392Z,1108
2017-04-30T18:39:33.803Z,1032
2017-04-30T18:40:43.220Z,952
2017-04-30T18:41:53.265Z,884
2017-04-30T18:43:02.687Z,820
2017-04-30T18:44:12.776Z,756
2017-04-30T18:45:22.505Z,696
2017-04-30T18:46:32.868Z,640
2017-04-30T18:47:42.327Z,584
2017-04-30T18:48:52.054Z,536
2017-04-30T18:50:02.425Z,484
2017-04-30T18:51:12.157Z,436
2017-04-30T18:52:22.206Z,396
2017-04-30T18:53:31.632Z,356
2017-04-30T18:54:41.991Z,324
2017-04-30T18:55:52.374Z,296
2017-04-30T18:57:02.410Z,272
2017-04-30T18:58:12.148Z,252
2017-04-30T18:59:22.189Z,232
2017-04-30T19:00:32.242Z,204
2017-04-30T19:01:42.280Z,184
2017-04-30T19:02:52.007Z,164
2017-04-30T19:04:02.065Z,144
2017-04-30T19:05:11.789Z,128
2017-04-30T19:06:21.203Z,116
2017-04-30T19:07:31.244Z,100
2017-04-30T19:08:40.985Z,88
2017-04-30T19:09:50.712Z,76
2017-04-30T19:11:01.107Z,64
2017-04-30T19:12:11.152Z,56
2017-04-30T19:13:20.874Z,48
2017-04-30T19:14:30.601Z,40
2017-04-30T19:15:40.330Z,36
2017-04-30T19:16:50.379Z,32
2017-04-30T19:18:00.750Z,24
2017-04-30T19:19:10.798Z,20
2017-04-30T19:20:20.530Z,20
2017-04-30T19:21:30.881Z,12
2017-04-30T19:22:40.612Z,12
2017-04-30T19:23:50.337Z,8
2017-04-30T19:25:00.070Z,8
2017-04-30T19:26:09.799Z,8
2017-04-30T19:27:20.162Z,4
2017-04-30T19:28:30.198Z,4
2017-04-30T19:29:39.932Z,4
2017-04-30T19:30:49.349Z,0
2017-04-30T19:31:59.700Z,4
2017-04-30T19:33:09.127Z,4
2017-04-30T19:34:18.866Z,4
2017-04-30T19:35:28.597Z,0
2017-04-30T19:36:38.653Z,0
2017-04-30T19:37:48.388Z,0
2017-04-30T19:38:58.425Z,0
2017-04-30T19:40:08.151Z,0
2017-04-30T19:41:17.560Z,0
2017-04-30T19:42:26.974Z,0
2017-04-30T19:43:36.068Z,0
2017-04-30T19:44:45.795Z,0
2017-04-30T19:45:55.513Z,0
2017-04-30T19:47:05.269Z,0
2017-04-30T19:48:14.693Z,0
2017-04-30T19:49:23.791Z,0
2017-04-30T19:50:33.210Z,0
2017-04-30T19:51:42.950Z,0
2017-04-30T19:52:52.679Z,0
2017-04-30T19:54:02.102Z,0
2017-04-30T19:55:12.142Z,0
2017-04-30T19:56:21.863Z,0
2017-04-30T19:57:31.900Z,0
2017-04-30T19:58:41.939Z,0
2017-04-30T19:59:51.350Z,0
2017-04-30T20:01:01.078Z,0
2017-04-30T20:02:10.809Z,0
2017-04-30T20:03:20.851Z,0
2017-04-30T20:04:31.208Z,0
2017-04-30T20:05:41.251Z,0
2017-04-30T20:06:50.981Z,0
2017-04-30T20:08:00.702Z,0
2017-04-30T20:09:09.791Z,0
2017-04-30T20:10:19.520Z,0
2017-04-30T20:11:28.918Z,0
2017-04-30T20:12:38.961Z,0
2017-04-30T20:13:49.015Z,0
2017-04-30T20:14:58.434Z,0
2017-04-30T20:16:08.162Z,0
2017-04-30T20:17:17.881Z,0
2017-04-30T20:18:27.301Z,0
2017-04-30T20:19:37.666Z,0
2017-04-30T20:20:47.074Z,0
2017-04-30T20:21:57.149Z,0
2017-04-30T20:23:06.568Z,0
2017-04-30T20:24:16.938Z,0
2017-04-30T20:25:26.673Z,0
2017-04-30T20:26:36.087Z,0
2017-04-30T20:27:46.455Z,0
2017-04-30T20:28:56.820Z,0
2017-04-30T20:30:06.863Z,0
2017-04-30T20:31:15.958Z,0
2017-04-30T20:32:25.369Z,0
2017-04-30T20:33:34.791Z,0
2017-04-30T20:34:44.508Z,0
2017-04-30T20:35:53.921Z,0
2017-04-30T20:37:03.640Z,0
2017-04-30T20:38:13.383Z,0
2017-04-30T20:39:23.150Z,0
2017-04-30T20:40:33.197Z,0
2017-04-30T20:41:42.918Z,0
2017-04-30T20:42:52.652Z,0
2017-04-30T20:44:02.375Z,0
2017-04-30T20:45:12.097Z,0
2017-04-30T20:46:22.129Z,0
2017-04-30T20:47:31.544Z,0
2017-04-30T20:48:41.901Z,0
2017-04-30T20:49:51.313Z,0
2017-04-30T20:51:01.039Z,0
2017-04-30T20:52:10.767Z,0
2017-04-30T20:53:20.180Z,0
2017-04-30T20:54:30.535Z,0
2017-04-30T20:55:39.940Z,0
2017-04-30T20:56:49.976Z,0
2017-04-30T20:57:59.389Z,0
2017-04-30T20:59:09.431Z,0
2017-04-30T21:00:19.166Z,0
2017-04-30T21:01:28.889Z,0
2017-04-30T21:02:38.935Z,0
2017-04-30T21:03:48.981Z,0
2017-04-30T21:04:59.094Z,0
2017-04-30T21:06:09.138Z,0
2017-04-30T21:07:19.180Z,0
2017-04-30T21:08:28.920Z,0
2017-04-30T21:09:38.327Z,0
2017-04-30T21:10:48.059Z,0
2017-04-30T21:11:57.791Z,0
2017-04-30T21:13:07.838Z,0
2017-04-30T21:14:17.248Z,0
2017-04-30T21:15:27.286Z,0
2017-04-30T21:16:37.640Z,0
2017-04-30T21:17:47.678Z,0
2017-04-30T21:18:58.038Z,0
2017-04-30T21:20:07.767Z,0
2017-04-30T21:21:17.487Z,0
2017-04-30T21:22:27.209Z,0
2017-04-30T21:23:37.249Z,0
2017-04-30T21:24:46.969Z,0
2017-04-30T21:25:56.381Z,0
2017-04-30T21:27:06.420Z,0
2017-04-30T21:28:16.462Z,0
2017-04-30T21:29:26.502Z,0
2017-04-30T21:30:36.534Z,0
2017-04-30T21:31:45.956Z,0
2017-04-30T21:32:55.990Z,0
2017-04-30T21:34:05.715Z,0
2017-04-30T21:35:15.756Z,0
2017-04-30T21:36:25.794Z,0
2017-04-30T21:37:35.201Z,0
2017-04-30T21:38:45.558Z,0
2017-04-30T21:39:55.282Z,0
2017-04-30T21:41:05.317Z,0
2017-04-30T21:42:14.737Z,0
2017-04-30T21:43:24.462Z,0
2017-04-30T21:44:34.501Z,0
2017-04-30T21:45:44.225Z,0
2017-04-30T21:46:54.591Z,0
2017-04-30T21:48:04.318Z,0
2017-04-30T21:49:14.358Z,0
2017-04-30T21:50:23.453Z,0
2017-04-30T21:51:33.814Z,0
2017-04-30T21:52:43.860Z,0
2017-04-30T21:53:53.585Z,0
2017-04-30T21:55:03.693Z,0
2017-04-30T21:56:13.109Z,0
2017-04-30T21:57:22.514Z,0
2017-04-30T21:58:31.926Z,0
2017-04-30T21:59:41.654Z,0
2017-04-30T22:00:51.377Z,0
2017-04-30T22:02:01.107Z,0
2017-04-30T22:03:10.520Z,0
2017-04-30T22:04:20.260Z,0
2017-04-30T22:05:29.671Z,0
2017-04-30T22:06:39.711Z,0
2017-04-30T22:07:49.761Z,0
2017-04-30T22:09:00.124Z,0
2017-04-30T22:10:09.849Z,0
2017-04-30T22:11:19.563Z,0
2017-04-30T22:12:29.282Z,0
2017-04-30T22:13:38.711Z,0
2017-04-30T22:14:48.443Z,0
2017-04-30T22:15:57.857Z,0
2017-04-30T22:17:07.308Z,0
2017-04-30T22:18:17.055Z,0
2017-04-30T22:19:26.782Z,0
2017-04-30T22:20:36.502Z,0
2017-04-30T22:21:46.232Z,0
2017-04-30T22:22:55.323Z,0
2017-04-30T22:24:04.736Z,0
2017-04-30T22:25:14.461Z,0
2017-04-30T22:26:23.577Z,0
2017-04-30T22:27:33.303Z,0
2017-04-30T22:28:43.341Z,0
2017-04-30T22:29:52.436Z,0
2017-04-30T22:31:02.484Z,0
2017-04-30T22:32:12.534Z,0
2017-04-30T22:33:22.567Z,0
2017-04-30T22:34:32.295Z,0
2017-04-30T22:35:41.706Z,0
2017-04-30T22:36:51.154Z,0
2017-04-30T22:38:00.870Z,0
2017-04-30T22:39:10.582Z,0
2017-04-30T22:40:20.649Z,0
2017-04-30T22:41:30.056Z,0
2017-04-30T22:42:39.468Z,0
2017-04-30T22:43:49.507Z,0
2017-04-30T22:44:59.242Z,0
2017-04-30T22:46:09.284Z,0
2017-04-30T22:47:19.326Z,0
2017-04-30T22:48:29.049Z,0
2017-04-30T22:49:38.780Z,0
2017-04-30T22:50:48.498Z,0
2017-04-30T22:51:58.219Z,0
2017-04-30T22:53:07.941Z,0
2017-04-30T22:54:17.682Z,0
2017-04-30T22:55:27.396Z,0
2017-04-30T22:56:36.799Z,0
2017-04-30T22:57:46.837Z,0
2017-04-30T22:58:56.252Z,0
2017-04-30T23:00:05.974Z,0
2017-04-30T23:01:15.698Z,0
2017-04-30T23:02:24.509Z,0
2017-04-30T23:03:34.871Z,0
2017-04-30T23:04:44.634Z,0
2017-04-30T23:05:54.349Z,0
2017-04-30T23:07:04.080Z,0
2017-04-30T23:08:13.492Z,0
2017-04-30T23:09:23.219Z,0
2017-04-30T23:10:33.568Z,0
2017-04-30T23:11:42.973Z,0
2017-04-30T23:12:53.009Z,0
2017-04-30T23:14:02.407Z,0
2017-04-30T23:15:12.127Z,0
2017-04-30T23:16:22.158Z,0
2017-04-30T23:17:32.512Z,0
2017-04-30T23:18:42.233Z,0
2017-04-30T23:19:52.283Z,0
2017-04-30T23:21:01.694Z,0
2017-04-30T23:22:11.739Z,0
2017-04-30T23:23:21.472Z,0
2017-04-30T23:24:31.203Z,0
2017-04-30T23:25:40.924Z,0
2017-04-30T23:26:50.968Z,0
2017-04-30T23:28:00.384Z,0
2017-04-30T23:29:10.106Z,0
2017-04-30T23:30:20.461Z,0
2017-04-30T23:31:29.865Z,0
2017-04-30T23:32:39.911Z,0
2017-04-30T23:33:49.335Z,0
2017-04-30T23:34:59.070Z,0
2017-04-30T23:36:09.438Z,0
2017-04-30T23:37:18.843Z,0
2017-04-30T23:38:29.201Z,0
2017-04-30T23:39:38.935Z,0
2017-04-30T23:40:48.968Z,0
2017-04-30T23:41:59.315Z,0
2017-04-30T23:43:09.038Z,0
2017-04-30T23:44:19.388Z,0
2017-04-30T23:45:28.789Z,0
2017-04-30T23:46:38.205Z,0
2017-04-30T23:47:47.603Z,0
2017-04-30T23:48:57.327Z,0
2017-04-30T23:50:07.056Z,0
2017-04-30T23:51:17.414Z,0
2017-04-30T23:52:27.772Z,0
2017-04-30T23:53:37.187Z,0
2017-04-30T23:54:46.586Z,0
2017-04-30T23:55:56.311Z,0
2017-04-30T23:57:05.403Z,0
2017-04-30T23:58:14.803Z,0
2017-04-30T23:59:25.171Z,0
